createdAt,value
2022-11-03T00:04:03.490Z,101662.75
2022-11-03T00:09:02.658Z,101608.81
2022-11-03T00:14:00.684Z,101679.06
2022-11-03T00:18:57.595Z,101671.41
2022-11-03T00:23:54.808Z,101641.63
2022-11-03T00:28:53.420Z,101570.28
2022-11-03T00:33:51.883Z,101684.22
2022-11-03T00:38:49.068Z,101692.47
2022-11-03T00:43:46.035Z,101684.69
2022-11-03T00:48:43.660Z,101698.81
2022-11-03T00:53:43.392Z,101602.97
2022-11-03T00:58:40.409Z,101687.69
2022-11-03T01:03:38.911Z,101678.09
2022-11-03T01:08:36.760Z,101698.69
2022-11-03T01:13:34.660Z,101661.38
2022-11-03T01:18:31.723Z,101671.72
2022-11-03T01:23:28.526Z,101700.09
2022-11-03T01:28:25.593Z,101701.31
2022-11-03T01:33:23.237Z,101654.63
2022-11-03T01:38:20.244Z,101632.84
2022-11-03T01:43:18.446Z,101642.31
2022-11-03T01:48:17.502Z,101679.94
2022-11-03T01:53:18.024Z,101708.78
2022-11-03T01:58:18.526Z,101689.44
2022-11-03T02:03:16.746Z,101662.69
2022-11-03T02:08:19.732Z,101742.84
2022-11-03T02:13:19.467Z,101680.53
2022-11-03T02:18:19.805Z,101742.13
2022-11-03T02:23:32.884Z,101734.22
2022-11-03T02:28:32.754Z,101649.03
2022-11-03T02:33:37.655Z,101663.63
2022-11-03T02:38:39.101Z,101718.72
2022-11-03T02:43:38.802Z,101679.38
2022-11-03T02:48:36.052Z,101719.78
2022-11-03T02:53:39.570Z,101722.81
2022-11-03T02:58:44.177Z,101730.31
2022-11-03T03:03:47.473Z,101738.50
2022-11-03T03:08:51.038Z,101750.66
2022-11-03T03:13:48.713Z,101766.56
2022-11-03T03:18:49.906Z,101704.41
2022-11-03T03:23:52.086Z,101757.53
2022-11-03T03:28:54.043Z,101763.69
2022-11-03T03:34:04.544Z,101788.75
2022-11-03T03:39:11.366Z,101735.66
2022-11-03T03:44:10.437Z,101785.88
2022-11-03T03:49:07.808Z,101784.09
2022-11-03T03:54:04.712Z,101789.38
2022-11-03T03:59:01.667Z,101771.53
2022-11-03T04:03:59.313Z,101753.34
2022-11-03T04:08:56.209Z,101767.59
2022-11-03T04:14:11.189Z,101760.75
2022-11-03T04:19:29.400Z,101755.50
2022-11-03T04:24:26.523Z,101762.09
2022-11-03T04:29:23.428Z,101763.81
2022-11-03T04:34:23.204Z,101772.97
2022-11-03T04:39:20.205Z,101763.81
2022-11-03T04:44:17.603Z,101776.00
2022-11-03T04:49:22.482Z,101750.00
2022-11-03T04:54:22.930Z,101796.69
2022-11-03T04:59:22.724Z,101763.66
2022-11-03T05:04:20.332Z,101768.19
2022-11-03T05:09:24.813Z,101813.34
2022-11-03T05:14:25.047Z,101716.06
2022-11-03T05:19:27.381Z,101827.97
2022-11-03T05:24:25.434Z,101841.41
2022-11-03T05:29:26.163Z,101845.25
2022-11-03T05:34:35.079Z,101796.09
2022-11-03T05:39:36.849Z,101838.38
2022-11-03T05:44:37.349Z,101854.84
2022-11-03T05:49:35.102Z,101837.78
2022-11-03T05:54:34.495Z,101861.16
2022-11-03T05:59:31.328Z,101855.38
2022-11-03T06:04:32.724Z,101833.28
2022-11-03T06:09:33.949Z,101826.44
2022-11-03T06:14:31.778Z,101879.31
2022-11-03T06:19:31.251Z,101849.13
2022-11-03T06:24:32.386Z,101804.34
2022-11-03T06:29:32.239Z,101876.97
2022-11-03T06:34:36.731Z,101891.53
2022-11-03T06:39:57.920Z,101914.41
2022-11-03T06:44:55.120Z,101865.16
2022-11-03T06:50:00.641Z,101919.28
2022-11-03T06:55:22.613Z,101929.31
2022-11-03T07:00:39.886Z,101899.53
2022-11-03T07:05:39.224Z,101931.47
2022-11-03T07:10:37.651Z,101900.50
2022-11-03T07:15:39.111Z,101933.44
2022-11-03T07:20:40.138Z,101933.97
2022-11-03T07:25:38.790Z,101814.22
2022-11-03T07:30:36.765Z,101878.41
2022-11-03T07:36:00.363Z,101880.88
2022-11-03T07:40:57.789Z,101933.84
2022-11-03T07:45:57.954Z,101896.00
2022-11-03T07:50:56.736Z,101947.22
2022-11-03T07:55:56.295Z,101922.78
2022-11-03T08:00:58.965Z,101962.50
2022-11-03T08:05:55.971Z,101882.94
2022-11-03T08:10:52.879Z,101936.69
2022-11-03T08:15:50.341Z,101945.84
2022-11-03T08:20:47.367Z,101920.44
2022-11-03T08:25:44.223Z,101893.78
2022-11-03T08:30:41.037Z,101912.66
2022-11-03T08:35:39.098Z,101864.75
2022-11-03T08:40:36.091Z,101879.69
2022-11-03T08:45:33.197Z,101909.13
2022-11-03T08:50:30.238Z,101915.56
2022-11-03T08:55:27.809Z,101908.03
2022-11-03T09:00:24.858Z,101913.38
2022-11-03T09:05:21.697Z,101871.25
2022-11-03T09:10:19.362Z,101844.34
2022-11-03T09:15:19.033Z,101900.31
2022-11-03T09:20:16.876Z,101855.63
2022-11-03T09:25:15.243Z,101884.09
2022-11-03T09:30:14.585Z,101864.41
2022-11-03T09:35:14.073Z,101873.13
2022-11-03T09:40:14.669Z,101815.31
2022-11-03T09:45:12.438Z,101806.81
2022-11-03T09:50:15.871Z,101793.97
2022-11-03T09:55:16.425Z,101805.91
2022-11-03T10:00:18.400Z,101799.41
2022-11-03T10:05:22.614Z,101847.91
2022-11-03T10:10:21.491Z,101727.25
2022-11-03T10:15:20.038Z,101798.19
2022-11-03T10:20:20.920Z,101826.75
2022-11-03T10:25:35.851Z,101793.13
2022-11-03T10:30:45.301Z,101787.72
2022-11-03T10:35:53.398Z,101691.38
2022-11-03T10:40:50.419Z,101785.00
2022-11-03T10:45:49.054Z,101758.69
2022-11-03T10:50:46.013Z,101767.94
2022-11-03T10:55:44.245Z,101739.22
2022-11-03T11:00:42.378Z,101690.75
2022-11-03T11:05:45.859Z,101729.84
2022-11-03T11:10:45.377Z,101752.19
2022-11-03T11:15:44.600Z,101738.81
2022-11-03T11:20:42.123Z,101725.88
2022-11-03T11:26:07.358Z,101734.97
2022-11-03T11:31:29.315Z,101685.19
2022-11-03T11:36:26.289Z,101731.38
2022-11-03T11:41:56.396Z,101698.03
2022-11-03T11:46:55.905Z,101659.75
2022-11-03T11:51:52.781Z,101708.72
2022-11-03T11:56:50.292Z,101692.09
2022-11-03T12:01:50.649Z,101696.72
2022-11-03T12:06:49.127Z,101692.78
2022-11-03T12:11:49.219Z,101646.84
2022-11-03T12:16:48.413Z,101658.84
2022-11-03T12:21:47.933Z,101660.22
2022-11-03T12:26:45.918Z,101641.41
2022-11-03T12:31:42.966Z,101659.63
2022-11-03T12:36:39.882Z,101636.81
2022-11-03T12:41:37.496Z,101659.53
2022-11-03T12:46:34.509Z,101651.59
2022-11-03T12:51:31.983Z,101630.88
2022-11-03T12:56:29.755Z,101637.31
2022-11-03T13:01:27.503Z,101616.72
2022-11-03T13:06:24.556Z,101587.13
2022-11-03T13:11:39.432Z,101578.97
2022-11-03T13:16:37.289Z,101631.41
2022-11-03T13:21:34.318Z,101642.81
2022-11-03T13:26:31.390Z,101531.50
2022-11-03T13:31:28.324Z,101624.53
2022-11-03T13:36:26.082Z,101611.66
2022-11-03T13:41:23.167Z,101604.38
2022-11-03T13:46:19.998Z,101636.63
2022-11-03T13:51:18.374Z,101596.94
2022-11-03T13:56:21.336Z,101599.75
2022-11-03T14:01:20.056Z,101636.91
2022-11-03T14:06:17.237Z,101604.81
2022-11-03T14:11:33.638Z,101639.13
2022-11-03T14:16:31.658Z,101531.94
2022-11-03T14:21:29.149Z,101562.72
2022-11-03T14:26:41.600Z,101570.50
2022-11-03T14:31:41.558Z,101517.84
2022-11-03T14:36:38.914Z,101602.31
2022-11-03T14:42:03.500Z,101606.06
2022-11-03T14:47:14.028Z,101552.44
2022-11-03T14:52:14.644Z,101558.44
2022-11-03T14:57:12.085Z,101611.44
2022-11-03T15:02:10.633Z,101588.75
2022-11-03T15:07:07.788Z,101590.66
2022-11-03T15:12:06.119Z,101597.16
2022-11-03T15:17:06.934Z,101561.19
2022-11-03T15:22:05.522Z,101589.19
2022-11-03T15:27:07.171Z,101626.19
2022-11-03T15:32:08.110Z,101601.00
2022-11-03T15:37:06.603Z,101616.50
2022-11-03T15:42:10.944Z,101533.22
2022-11-03T15:47:09.340Z,101586.41
2022-11-03T15:52:09.831Z,101571.88
2022-11-03T15:57:06.971Z,101585.16
2022-11-03T16:02:40.184Z,101563.06
2022-11-03T16:07:40.859Z,101636.34
2022-11-03T16:12:45.310Z,101635.13
2022-11-03T16:17:58.637Z,101640.06
2022-11-03T16:23:01.740Z,101606.00
2022-11-03T16:28:10.433Z,101597.50
2022-11-03T16:33:09.675Z,101611.25
2022-11-03T16:38:10.054Z,101634.59
2022-11-03T16:43:07.665Z,101560.81
2022-11-03T16:48:06.363Z,101611.91
2022-11-03T16:53:13.961Z,101596.06
2022-11-03T16:58:14.202Z,101569.06
2022-11-03T17:03:11.175Z,101582.16
2022-11-03T17:08:38.629Z,101630.84
2022-11-03T17:13:36.296Z,101611.91
2022-11-03T17:18:34.196Z,101640.25
2022-11-03T17:23:32.789Z,101571.44
2022-11-03T17:28:29.821Z,101624.75
2022-11-03T17:33:27.842Z,101626.13
2022-11-03T17:38:26.428Z,101622.59
2022-11-03T17:43:37.789Z,101617.97
2022-11-03T17:48:40.074Z,101535.25
2022-11-03T17:53:39.669Z,101492.53
2022-11-03T17:58:43.182Z,101584.50
2022-11-03T18:03:42.678Z,101590.38
2022-11-03T18:08:40.256Z,101514.31
2022-11-03T18:13:37.932Z,101556.09
2022-11-03T18:18:38.160Z,101526.31
2022-11-03T18:23:36.369Z,101569.63
2022-11-03T18:28:33.704Z,101417.63
2022-11-03T18:33:34.747Z,101525.03
2022-11-03T18:38:38.771Z,101489.94
2022-11-03T18:43:43.052Z,101457.31
2022-11-03T18:48:43.028Z,101545.91
2022-11-03T18:53:40.554Z,101546.47
2022-11-03T18:58:39.279Z,101401.91
2022-11-03T19:03:36.303Z,101434.59
2022-11-03T19:08:38.183Z,101497.78
2022-11-03T19:13:48.261Z,101504.78
2022-11-03T19:18:48.416Z,101489.44
2022-11-03T19:23:48.071Z,101510.72
2022-11-03T19:28:51.506Z,101515.16
2022-11-03T19:33:49.752Z,101394.44
2022-11-03T19:38:47.430Z,101431.31
2022-11-03T19:43:44.907Z,101419.94
2022-11-03T19:48:50.258Z,101493.19
2022-11-03T19:53:51.931Z,101442.09
2022-11-03T19:58:49.202Z,101492.63
2022-11-03T20:03:47.219Z,101494.16
2022-11-03T20:08:46.754Z,101484.63
2022-11-03T20:13:44.124Z,101520.56
2022-11-03T20:18:43.473Z,101454.66
2022-11-03T20:23:40.859Z,101385.59
2022-11-03T20:28:38.909Z,101494.56
2022-11-03T20:33:36.519Z,101470.91
2022-11-03T20:38:34.161Z,101421.69
2022-11-03T20:43:35.247Z,101446.59
2022-11-03T20:48:33.268Z,101405.59
2022-11-03T20:53:31.816Z,101487.88
2022-11-03T20:58:29.654Z,101492.88
2022-11-03T21:03:53.507Z,101514.28
2022-11-03T21:08:47.165Z,101482.78
2022-11-03T21:13:44.332Z,101466.78
2022-11-03T21:18:59.415Z,101390.69
2022-11-03T21:23:57.530Z,101501.59
2022-11-03T21:28:54.673Z,101392.69
2022-11-03T21:33:51.762Z,101473.72
2022-11-03T21:38:48.846Z,101508.72
2022-11-03T21:44:04.726Z,101491.91
2022-11-03T21:49:21.752Z,101506.78
2022-11-03T21:54:18.731Z,101432.41
2022-11-03T21:59:16.494Z,101483.09
2022-11-03T22:04:13.558Z,101494.63
2022-11-03T22:09:10.722Z,101494.25
2022-11-03T22:14:10.452Z,101495.44
2022-11-03T22:19:28.188Z,101496.56
2022-11-03T22:24:42.815Z,101469.88
2022-11-03T22:29:57.903Z,101475.78
2022-11-03T22:35:13.852Z,101475.56
2022-11-03T22:40:30.610Z,101442.34
2022-11-03T22:45:45.470Z,101452.06
2022-11-03T22:50:43.912Z,101373.72
2022-11-03T22:55:41.012Z,101412.38
2022-11-03T23:00:39.815Z,101394.59
2022-11-03T23:05:37.218Z,101431.47
2022-11-03T23:10:35.289Z,101429.22
2022-11-03T23:15:32.831Z,101410.88
2022-11-03T23:20:47.495Z,101403.47
2022-11-03T23:25:45.507Z,101407.66
2022-11-03T23:30:44.848Z,101395.63
2022-11-03T23:35:41.837Z,101368.97
2022-11-03T23:40:39.091Z,101339.38
2022-11-03T23:45:55.158Z,101408.72
2022-11-03T23:50:53.078Z,101388.38
2022-11-03T23:56:04.496Z,101349.78
